sensor_id;sensor_type;location;lat;lon;timestamp;P1;durP1;ratioP1;P2;durP2;ratioP2
13588;SDS011;6865;52.552;13.434;2022-10-19T00:01:03;9.50;;;2.77;;
13588;SDS011;6865;52.552;13.434;2022-10-19T00:03:41;8.03;;;2.87;;
13588;SDS011;6865;52.552;13.434;2022-10-19T00:06:15;10.03;;;3.13;;
13588;SDS011;6865;52.552;13.434;2022-10-19T00:08:51;6.27;;;2.33;;
13588;SDS011;6865;52.552;13.434;2022-10-19T00:11:23;11.17;;;2.80;;
13588;SDS011;6865;52.552;13.434;2022-10-19T00:13:50;9.07;;;2.70;;
13588;SDS011;6865;52.552;13.434;2022-10-19T00:16:18;6.93;;;2.53;;
13588;SDS011;6865;52.552;13.434;2022-10-19T00:18:45;11.77;;;2.80;;
13588;SDS011;6865;52.552;13.434;2022-10-19T00:21:13;6.17;;;2.67;;
13588;SDS011;6865;52.552;13.434;2022-10-19T00:23:41;7.23;;;3.13;;
13588;SDS011;6865;52.552;13.434;2022-10-19T00:26:08;8.27;;;2.70;;
13588;SDS011;6865;52.552;13.434;2022-10-19T00:28:35;10.30;;;3.03;;
13588;SDS011;6865;52.552;13.434;2022-10-19T00:31:03;6.13;;;2.70;;
13588;SDS011;6865;52.552;13.434;2022-10-19T00:33:41;7.50;;;2.70;;
13588;SDS011;6865;52.552;13.434;2022-10-19T00:36:22;6.40;;;2.40;;
13588;SDS011;6865;52.552;13.434;2022-10-19T00:38:51;4.80;;;2.40;;
13588;SDS011;6865;52.552;13.434;2022-10-19T00:41:19;7.03;;;2.60;;
13588;SDS011;6865;52.552;13.434;2022-10-19T00:43:51;9.53;;;2.60;;
13588;SDS011;6865;52.552;13.434;2022-10-19T00:46:27;7.57;;;2.70;;
13588;SDS011;6865;52.552;13.434;2022-10-19T00:49:09;8.87;;;2.43;;
13588;SDS011;6865;52.552;13.434;2022-10-19T00:51:43;10.60;;;2.73;;
13588;SDS011;6865;52.552;13.434;2022-10-19T00:54:12;9.37;;;2.50;;
13588;SDS011;6865;52.552;13.434;2022-10-19T00:56:41;8.53;;;2.60;;
13588;SDS011;6865;52.552;13.434;2022-10-19T00:59:11;7.57;;;2.40;;
13588;SDS011;6865;52.552;13.434;2022-10-19T01:01:39;6.83;;;2.10;;
13588;SDS011;6865;52.552;13.434;2022-10-19T01:04:11;10.23;;;2.77;;
13588;SDS011;6865;52.552;13.434;2022-10-19T01:06:39;7.67;;;2.20;;
13588;SDS011;6865;52.552;13.434;2022-10-19T01:09:07;8.00;;;2.10;;
13588;SDS011;6865;52.552;13.434;2022-10-19T01:11:50;8.03;;;2.20;;
13588;SDS011;6865;52.552;13.434;2022-10-19T01:14:37;9.60;;;2.63;;
13588;SDS011;6865;52.552;13.434;2022-10-19T01:20:06;5.17;;;1.80;;
13588;SDS011;6865;52.552;13.434;2022-10-19T01:23:04;7.73;;;2.30;;
13588;SDS011;6865;52.552;13.434;2022-10-19T01:26:15;7.30;;;2.33;;
13588;SDS011;6865;52.552;13.434;2022-10-19T01:31:44;5.33;;;2.00;;
13588;SDS011;6865;52.552;13.434;2022-10-19T01:34:22;5.17;;;1.63;;
13588;SDS011;6865;52.552;13.434;2022-10-19T01:36:56;8.47;;;1.90;;
13588;SDS011;6865;52.552;13.434;2022-10-19T01:39:50;6.33;;;1.87;;
13588;SDS011;6865;52.552;13.434;2022-10-19T01:42:45;4.93;;;1.83;;
13588;SDS011;6865;52.552;13.434;2022-10-19T01:45:49;3.60;;;1.70;;
13588;SDS011;6865;52.552;13.434;2022-10-19T01:48:29;6.60;;;1.60;;
13588;SDS011;6865;52.552;13.434;2022-10-19T01:51:05;5.73;;;1.83;;
13588;SDS011;6865;52.552;13.434;2022-10-19T01:53:39;3.60;;;1.60;;
13588;SDS011;6865;52.552;13.434;2022-10-19T01:56:09;7.13;;;1.83;;
13588;SDS011;6865;52.552;13.434;2022-10-19T01:58:37;5.93;;;1.30;;
13588;SDS011;6865;52.552;13.434;2022-10-19T02:01:08;5.50;;;1.37;;
13588;SDS011;6865;52.552;13.434;2022-10-19T02:03:38;6.63;;;1.67;;
13588;SDS011;6865;52.552;13.434;2022-10-19T02:06:06;5.43;;;1.57;;
13588;SDS011;6865;52.552;13.434;2022-10-19T02:08:46;6.20;;;1.47;;
13588;SDS011;6865;52.552;13.434;2022-10-19T02:11:15;7.27;;;1.77;;
13588;SDS011;6865;52.552;13.434;2022-10-19T02:13:43;6.70;;;1.83;;
13588;SDS011;6865;52.552;13.434;2022-10-19T02:16:12;8.23;;;1.97;;
13588;SDS011;6865;52.552;13.434;2022-10-19T02:18:45;5.00;;;1.70;;
13588;SDS011;6865;52.552;13.434;2022-10-19T02:21:14;5.83;;;1.80;;
13588;SDS011;6865;52.552;13.434;2022-10-19T02:23:40;6.67;;;2.20;;
13588;SDS011;6865;52.552;13.434;2022-10-19T02:26:07;3.70;;;1.90;;
13588;SDS011;6865;52.552;13.434;2022-10-19T02:28:34;6.10;;;2.13;;
13588;SDS011;6865;52.552;13.434;2022-10-19T02:31:01;7.07;;;2.20;;
13588;SDS011;6865;52.552;13.434;2022-10-19T02:33:28;7.13;;;1.97;;
13588;SDS011;6865;52.552;13.434;2022-10-19T02:35:56;6.30;;;1.80;;
13588;SDS011;6865;52.552;13.434;2022-10-19T02:38:23;8.03;;;2.23;;
13588;SDS011;6865;52.552;13.434;2022-10-19T02:40:53;4.87;;;1.73;;
13588;SDS011;6865;52.552;13.434;2022-10-19T02:43:33;7.33;;;2.00;;
13588;SDS011;6865;52.552;13.434;2022-10-19T02:46:07;3.73;;;1.70;;
13588;SDS011;6865;52.552;13.434;2022-10-19T02:48:43;10.40;;;2.03;;
13588;SDS011;6865;52.552;13.434;2022-10-19T02:51:30;7.57;;;2.23;;
13588;SDS011;6865;52.552;13.434;2022-10-19T02:54:02;8.90;;;1.90;;
13588;SDS011;6865;52.552;13.434;2022-10-19T02:56:30;6.23;;;1.83;;
13588;SDS011;6865;52.552;13.434;2022-10-19T02:58:58;5.50;;;1.90;;
13588;SDS011;6865;52.552;13.434;2022-10-19T03:01:24;4.90;;;1.80;;
13588;SDS011;6865;52.552;13.434;2022-10-19T03:03:51;4.80;;;1.80;;
13588;SDS011;6865;52.552;13.434;2022-10-19T03:06:18;5.97;;;1.70;;
13588;SDS011;6865;52.552;13.434;2022-10-19T03:08:45;8.90;;;1.87;;
13588;SDS011;6865;52.552;13.434;2022-10-19T03:11:11;4.27;;;1.87;;
13588;SDS011;6865;52.552;13.434;2022-10-19T03:13:39;5.20;;;1.83;;
13588;SDS011;6865;52.552;13.434;2022-10-19T03:16:07;7.93;;;2.20;;
13588;SDS011;6865;52.552;13.434;2022-10-19T03:18:34;5.20;;;2.00;;
13588;SDS011;6865;52.552;13.434;2022-10-19T03:21:05;7.63;;;1.80;;
13588;SDS011;6865;52.552;13.434;2022-10-19T03:23:34;6.33;;;1.70;;
13588;SDS011;6865;52.552;13.434;2022-10-19T03:26:01;3.67;;;1.50;;
13588;SDS011;6865;52.552;13.434;2022-10-19T03:28:28;9.07;;;1.77;;
13588;SDS011;6865;52.552;13.434;2022-10-19T03:30:55;4.10;;;1.60;;
13588;SDS011;6865;52.552;13.434;2022-10-19T03:33:22;6.93;;;1.73;;
13588;SDS011;6865;52.552;13.434;2022-10-19T03:38:54;4.90;;;1.40;;
13588;SDS011;6865;52.552;13.434;2022-10-19T03:41:23;3.07;;;1.40;;
13588;SDS011;6865;52.552;13.434;2022-10-19T03:43:51;2.97;;;1.50;;
13588;SDS011;6865;52.552;13.434;2022-10-19T03:46:18;5.77;;;1.83;;
13588;SDS011;6865;52.552;13.434;2022-10-19T03:48:45;6.07;;;1.60;;
13588;SDS011;6865;52.552;13.434;2022-10-19T03:51:13;3.10;;;1.87;;
13588;SDS011;6865;52.552;13.434;2022-10-19T03:53:46;3.60;;;1.60;;
13588;SDS011;6865;52.552;13.434;2022-10-19T03:56:17;3.23;;;1.77;;
13588;SDS011;6865;52.552;13.434;2022-10-19T03:58:45;4.93;;;1.90;;
13588;SDS011;6865;52.552;13.434;2022-10-19T04:01:17;3.83;;;1.93;;
13588;SDS011;6865;52.552;13.434;2022-10-19T04:03:59;5.33;;;2.10;;
13588;SDS011;6865;52.552;13.434;2022-10-19T04:06:28;5.27;;;1.70;;
13588;SDS011;6865;52.552;13.434;2022-10-19T04:08:57;3.13;;;1.50;;
13588;SDS011;6865;52.552;13.434;2022-10-19T04:11:24;5.47;;;1.50;;
13588;SDS011;6865;52.552;13.434;2022-10-19T04:13:54;6.67;;;1.80;;
13588;SDS011;6865;52.552;13.434;2022-10-19T04:16:22;6.47;;;1.60;;
13588;SDS011;6865;52.552;13.434;2022-10-19T04:18:50;4.40;;;1.40;;
13588;SDS011;6865;52.552;13.434;2022-10-19T04:21:30;4.17;;;1.50;;
13588;SDS011;6865;52.552;13.434;2022-10-19T04:24:03;3.43;;;1.50;;
13588;SDS011;6865;52.552;13.434;2022-10-19T04:26:32;5.10;;;1.40;;
13588;SDS011;6865;52.552;13.434;2022-10-19T04:28:59;4.57;;;1.67;;
13588;SDS011;6865;52.552;13.434;2022-10-19T04:31:27;3.47;;;1.33;;
13588;SDS011;6865;52.552;13.434;2022-10-19T04:33:54;7.10;;;1.73;;
13588;SDS011;6865;52.552;13.434;2022-10-19T04:36:21;3.73;;;1.50;;
13588;SDS011;6865;52.552;13.434;2022-10-19T04:38:48;5.07;;;1.40;;
13588;SDS011;6865;52.552;13.434;2022-10-19T04:41:16;2.37;;;1.30;;
13588;SDS011;6865;52.552;13.434;2022-10-19T04:43:44;5.63;;;1.50;;
13588;SDS011;6865;52.552;13.434;2022-10-19T04:46:18;6.37;;;1.80;;
13588;SDS011;6865;52.552;13.434;2022-10-19T04:48:45;5.40;;;1.57;;
13588;SDS011;6865;52.552;13.434;2022-10-19T04:51:13;3.73;;;1.70;;
13588;SDS011;6865;52.552;13.434;2022-10-19T04:53:41;5.33;;;1.60;;
13588;SDS011;6865;52.552;13.434;2022-10-19T04:56:10;4.97;;;1.47;;
13588;SDS011;6865;52.552;13.434;2022-10-19T04:58:42;3.20;;;1.20;;
13588;SDS011;6865;52.552;13.434;2022-10-19T05:01:10;5.07;;;1.70;;
13588;SDS011;6865;52.552;13.434;2022-10-19T05:03:38;4.67;;;1.20;;
13588;SDS011;6865;52.552;13.434;2022-10-19T05:06:06;5.87;;;1.73;;
13588;SDS011;6865;52.552;13.434;2022-10-19T05:08:33;4.00;;;1.50;;
13588;SDS011;6865;52.552;13.434;2022-10-19T05:11:01;3.77;;;1.50;;
13588;SDS011;6865;52.552;13.434;2022-10-19T05:13:32;8.30;;;1.50;;
13588;SDS011;6865;52.552;13.434;2022-10-19T05:16:00;3.77;;;1.60;;
13588;SDS011;6865;52.552;13.434;2022-10-19T05:18:30;4.83;;;1.70;;
13588;SDS011;6865;52.552;13.434;2022-10-19T05:21:03;4.90;;;1.50;;
13588;SDS011;6865;52.552;13.434;2022-10-19T05:23:34;6.43;;;1.50;;
13588;SDS011;6865;52.552;13.434;2022-10-19T05:28:36;5.87;;;1.77;;
13588;SDS011;6865;52.552;13.434;2022-10-19T05:31:07;3.50;;;1.53;;
13588;SDS011;6865;52.552;13.434;2022-10-19T05:33:35;4.47;;;1.57;;
13588;SDS011;6865;52.552;13.434;2022-10-19T05:39:02;4.63;;;1.70;;
13588;SDS011;6865;52.552;13.434;2022-10-19T05:41:34;7.93;;;1.80;;
13588;SDS011;6865;52.552;13.434;2022-10-19T05:44:01;6.03;;;1.70;;
13588;SDS011;6865;52.552;13.434;2022-10-19T05:46:29;6.80;;;1.60;;
13588;SDS011;6865;52.552;13.434;2022-10-19T05:48:57;4.47;;;2.10;;
13588;SDS011;6865;52.552;13.434;2022-10-19T05:51:25;3.87;;;1.57;;
13588;SDS011;6865;52.552;13.434;2022-10-19T05:53:53;8.40;;;1.77;;
13588;SDS011;6865;52.552;13.434;2022-10-19T05:56:25;4.80;;;1.70;;
13588;SDS011;6865;52.552;13.434;2022-10-19T05:58:55;5.47;;;1.77;;
13588;SDS011;6865;52.552;13.434;2022-10-19T06:01:22;5.53;;;1.70;;
13588;SDS011;6865;52.552;13.434;2022-10-19T06:03:50;8.40;;;3.00;;
13588;SDS011;6865;52.552;13.434;2022-10-19T06:06:18;4.13;;;1.30;;
13588;SDS011;6865;52.552;13.434;2022-10-19T06:08:45;7.73;;;2.70;;
13588;SDS011;6865;52.552;13.434;2022-10-19T06:11:13;5.70;;;1.90;;
13588;SDS011;6865;52.552;13.434;2022-10-19T06:13:41;4.03;;;1.70;;
13588;SDS011;6865;52.552;13.434;2022-10-19T06:16:10;4.67;;;1.47;;
13588;SDS011;6865;52.552;13.434;2022-10-19T06:18:38;8.90;;;3.07;;
13588;SDS011;6865;52.552;13.434;2022-10-19T06:21:06;3.50;;;1.60;;
13588;SDS011;6865;52.552;13.434;2022-10-19T06:23:35;4.97;;;1.97;;
13588;SDS011;6865;52.552;13.434;2022-10-19T06:26:04;3.60;;;1.63;;
13588;SDS011;6865;52.552;13.434;2022-10-19T06:28:33;7.70;;;1.80;;
13588;SDS011;6865;52.552;13.434;2022-10-19T06:31:00;6.97;;;1.60;;
13588;SDS011;6865;52.552;13.434;2022-10-19T06:33:30;6.50;;;1.73;;
13588;SDS011;6865;52.552;13.434;2022-10-19T06:36:04;6.03;;;1.40;;
13588;SDS011;6865;52.552;13.434;2022-10-19T06:38:41;6.03;;;1.93;;
13588;SDS011;6865;52.552;13.434;2022-10-19T06:41:08;8.13;;;1.80;;
13588;SDS011;6865;52.552;13.434;2022-10-19T06:43:36;4.83;;;1.90;;
13588;SDS011;6865;52.552;13.434;2022-10-19T06:46:03;5.40;;;1.70;;
13588;SDS011;6865;52.552;13.434;2022-10-19T06:48:31;6.90;;;1.67;;
13588;SDS011;6865;52.552;13.434;2022-10-19T06:50:58;5.17;;;2.00;;
13588;SDS011;6865;52.552;13.434;2022-10-19T06:53:26;5.83;;;1.80;;
13588;SDS011;6865;52.552;13.434;2022-10-19T06:55:57;7.47;;;1.60;;
13588;SDS011;6865;52.552;13.434;2022-10-19T06:58:25;6.33;;;2.40;;
13588;SDS011;6865;52.552;13.434;2022-10-19T07:00:58;7.80;;;1.90;;
13588;SDS011;6865;52.552;13.434;2022-10-19T07:03:27;5.87;;;1.70;;
13588;SDS011;6865;52.552;13.434;2022-10-19T07:05:59;8.13;;;2.07;;
13588;SDS011;6865;52.552;13.434;2022-10-19T07:08:27;6.97;;;1.70;;
13588;SDS011;6865;52.552;13.434;2022-10-19T07:10:57;4.10;;;1.63;;
13588;SDS011;6865;52.552;13.434;2022-10-19T07:13:25;5.97;;;1.40;;
13588;SDS011;6865;52.552;13.434;2022-10-19T07:15:57;4.93;;;1.50;;
13588;SDS011;6865;52.552;13.434;2022-10-19T07:18:25;5.60;;;1.50;;
13588;SDS011;6865;52.552;13.434;2022-10-19T07:20:53;6.03;;;1.47;;
13588;SDS011;6865;52.552;13.434;2022-10-19T07:23:21;5.73;;;1.70;;
13588;SDS011;6865;52.552;13.434;2022-10-19T07:25:48;3.03;;;1.70;;
13588;SDS011;6865;52.552;13.434;2022-10-19T07:28:17;12.20;;;1.80;;
13588;SDS011;6865;52.552;13.434;2022-10-19T07:30:47;4.40;;;1.40;;
13588;SDS011;6865;52.552;13.434;2022-10-19T07:33:14;8.90;;;1.80;;
13588;SDS011;6865;52.552;13.434;2022-10-19T07:35:45;4.97;;;1.77;;
13588;SDS011;6865;52.552;13.434;2022-10-19T07:38:12;6.73;;;2.40;;
13588;SDS011;6865;52.552;13.434;2022-10-19T07:40:38;6.93;;;1.97;;
13588;SDS011;6865;52.552;13.434;2022-10-19T07:43:12;8.40;;;1.90;;
13588;SDS011;6865;52.552;13.434;2022-10-19T07:45:39;7.23;;;2.37;;
13588;SDS011;6865;52.552;13.434;2022-10-19T07:48:05;5.47;;;1.90;;
13588;SDS011;6865;52.552;13.434;2022-10-19T07:50:32;8.33;;;2.43;;
13588;SDS011;6865;52.552;13.434;2022-10-19T07:52:58;5.00;;;2.00;;
13588;SDS011;6865;52.552;13.434;2022-10-19T07:55:25;2.97;;;1.53;;
13588;SDS011;6865;52.552;13.434;2022-10-19T07:57:51;5.43;;;1.50;;
13588;SDS011;6865;52.552;13.434;2022-10-19T08:00:18;4.63;;;1.63;;
13588;SDS011;6865;52.552;13.434;2022-10-19T08:02:45;3.53;;;1.50;;
13588;SDS011;6865;52.552;13.434;2022-10-19T08:05:32;4.47;;;1.50;;
13588;SDS011;6865;52.552;13.434;2022-10-19T08:07:59;9.17;;;1.90;;
13588;SDS011;6865;52.552;13.434;2022-10-19T08:10:26;4.67;;;1.43;;
13588;SDS011;6865;52.552;13.434;2022-10-19T08:12:52;5.40;;;1.50;;
13588;SDS011;6865;52.552;13.434;2022-10-19T08:15:19;4.43;;;1.30;;
13588;SDS011;6865;52.552;13.434;2022-10-19T08:17:45;5.60;;;1.53;;
13588;SDS011;6865;52.552;13.434;2022-10-19T08:20:12;4.17;;;1.60;;
13588;SDS011;6865;52.552;13.434;2022-10-19T08:22:39;4.33;;;1.07;;
13588;SDS011;6865;52.552;13.434;2022-10-19T08:25:06;3.13;;;1.30;;
13588;SDS011;6865;52.552;13.434;2022-10-19T08:27:33;5.37;;;1.43;;
13588;SDS011;6865;52.552;13.434;2022-10-19T08:30:01;7.73;;;1.80;;
13588;SDS011;6865;52.552;13.434;2022-10-19T08:32:28;5.40;;;2.00;;
13588;SDS011;6865;52.552;13.434;2022-10-19T08:34:54;5.23;;;1.40;;
13588;SDS011;6865;52.552;13.434;2022-10-19T08:37:21;5.67;;;1.70;;
13588;SDS011;6865;52.552;13.434;2022-10-19T08:40:12;7.00;;;2.17;;
13588;SDS011;6865;52.552;13.434;2022-10-19T08:42:49;7.27;;;2.03;;
13588;SDS011;6865;52.552;13.434;2022-10-19T08:45:40;6.10;;;1.90;;
13588;SDS011;6865;52.552;13.434;2022-10-19T08:48:22;5.87;;;1.40;;
13588;SDS011;6865;52.552;13.434;2022-10-19T08:50:53;7.37;;;1.50;;
13588;SDS011;6865;52.552;13.434;2022-10-19T08:53:56;8.30;;;1.70;;
13588;SDS011;6865;52.552;13.434;2022-10-19T08:59:25;5.50;;;1.77;;
13588;SDS011;6865;52.552;13.434;2022-10-19T09:02:19;6.80;;;1.90;;
13588;SDS011;6865;52.552;13.434;2022-10-19T09:04:59;7.03;;;1.80;;
13588;SDS011;6865;52.552;13.434;2022-10-19T09:07:34;5.47;;;1.97;;
13588;SDS011;6865;52.552;13.434;2022-10-19T09:12:41;5.00;;;1.60;;
13588;SDS011;6865;52.552;13.434;2022-10-19T09:15:24;5.10;;;1.30;;
13588;SDS011;6865;52.552;13.434;2022-10-19T09:18:13;6.40;;;1.63;;
13588;SDS011;6865;52.552;13.434;2022-10-19T09:20:56;5.50;;;1.50;;
13588;SDS011;6865;52.552;13.434;2022-10-19T09:23:45;5.43;;;1.50;;
13588;SDS011;6865;52.552;13.434;2022-10-19T09:26:51;5.93;;;1.30;;
13588;SDS011;6865;52.552;13.434;2022-10-19T09:32:19;5.13;;;1.40;;
13588;SDS011;6865;52.552;13.434;2022-10-19T09:34:57;5.83;;;1.90;;
13588;SDS011;6865;52.552;13.434;2022-10-19T09:37:27;5.10;;;1.60;;
13588;SDS011;6865;52.552;13.434;2022-10-19T09:40:00;3.00;;;1.17;;
13588;SDS011;6865;52.552;13.434;2022-10-19T09:42:27;4.90;;;1.30;;
13588;SDS011;6865;52.552;13.434;2022-10-19T09:44:59;4.20;;;1.50;;
13588;SDS011;6865;52.552;13.434;2022-10-19T09:47:31;3.83;;;1.40;;
13588;SDS011;6865;52.552;13.434;2022-10-19T09:50:14;4.37;;;1.33;;
13588;SDS011;6865;52.552;13.434;2022-10-19T09:53:13;4.90;;;1.23;;
13588;SDS011;6865;52.552;13.434;2022-10-19T09:55:41;3.90;;;1.00;;
13588;SDS011;6865;52.552;13.434;2022-10-19T10:00:42;4.60;;;1.13;;
13588;SDS011;6865;52.552;13.434;2022-10-19T10:03:20;5.43;;;1.20;;
13588;SDS011;6865;52.552;13.434;2022-10-19T10:05:52;5.23;;;1.13;;
13588;SDS011;6865;52.552;13.434;2022-10-19T10:08:28;4.00;;;1.20;;
13588;SDS011;6865;52.552;13.434;2022-10-19T10:11:03;3.03;;;1.30;;
13588;SDS011;6865;52.552;13.434;2022-10-19T10:13:34;1.93;;;0.70;;
13588;SDS011;6865;52.552;13.434;2022-10-19T10:16:08;1.37;;;0.93;;
13588;SDS011;6865;52.552;13.434;2022-10-19T10:18:47;2.07;;;1.10;;
13588;SDS011;6865;52.552;13.434;2022-10-19T10:21:28;3.87;;;0.90;;
13588;SDS011;6865;52.552;13.434;2022-10-19T10:26:27;2.80;;;0.97;;
13588;SDS011;6865;52.552;13.434;2022-10-19T10:28:54;2.50;;;1.20;;
13588;SDS011;6865;52.552;13.434;2022-10-19T10:31:26;2.30;;;1.00;;
13588;SDS011;6865;52.552;13.434;2022-10-19T10:33:58;2.13;;;0.90;;
13588;SDS011;6865;52.552;13.434;2022-10-19T10:36:49;1.57;;;0.93;;
13588;SDS011;6865;52.552;13.434;2022-10-19T10:39:18;3.10;;;1.00;;
13588;SDS011;6865;52.552;13.434;2022-10-19T10:41:45;1.20;;;0.83;;
13588;SDS011;6865;52.552;13.434;2022-10-19T10:44:17;1.77;;;0.90;;
13588;SDS011;6865;52.552;13.434;2022-10-19T10:49:20;4.20;;;0.90;;
13588;SDS011;6865;52.552;13.434;2022-10-19T10:51:53;2.07;;;1.00;;
13588;SDS011;6865;52.552;13.434;2022-10-19T10:54:27;1.77;;;1.00;;
13588;SDS011;6865;52.552;13.434;2022-10-19T10:56:58;3.10;;;1.03;;
13588;SDS011;6865;52.552;13.434;2022-10-19T10:59:36;4.30;;;1.37;;
13588;SDS011;6865;52.552;13.434;2022-10-19T11:02:33;4.07;;;1.10;;
13588;SDS011;6865;52.552;13.434;2022-10-19T11:05:29;2.73;;;1.00;;
13588;SDS011;6865;52.552;13.434;2022-10-19T11:08:14;2.63;;;0.90;;
13588;SDS011;6865;52.552;13.434;2022-10-19T11:10:53;2.20;;;1.13;;
13588;SDS011;6865;52.552;13.434;2022-10-19T11:13:26;2.27;;;0.90;;
13588;SDS011;6865;52.552;13.434;2022-10-19T11:15:59;1.53;;;0.97;;
13588;SDS011;6865;52.552;13.434;2022-10-19T11:18:35;2.40;;;1.10;;
13588;SDS011;6865;52.552;13.434;2022-10-19T11:21:09;3.40;;;1.00;;
13588;SDS011;6865;52.552;13.434;2022-10-19T11:24:01;2.20;;;1.00;;
13588;SDS011;6865;52.552;13.434;2022-10-19T11:26:44;2.63;;;0.93;;
13588;SDS011;6865;52.552;13.434;2022-10-19T11:32:07;2.33;;;1.20;;
13588;SDS011;6865;52.552;13.434;2022-10-19T11:34:56;12.67;;;7.93;;
13588;SDS011;6865;52.552;13.434;2022-10-19T11:37:44;5.97;;;2.90;;
13588;SDS011;6865;52.552;13.434;2022-10-19T11:40:53;3.00;;;1.27;;
13588;SDS011;6865;52.552;13.434;2022-10-19T11:44:03;3.03;;;1.20;;
13588;SDS011;6865;52.552;13.434;2022-10-19T11:46:42;3.80;;;1.13;;
13588;SDS011;6865;52.552;13.434;2022-10-19T11:52:21;5.93;;;1.20;;
13588;SDS011;6865;52.552;13.434;2022-10-19T11:55:12;2.23;;;1.30;;
13588;SDS011;6865;52.552;13.434;2022-10-19T11:57:43;2.67;;;1.20;;
13588;SDS011;6865;52.552;13.434;2022-10-19T12:00:17;2.70;;;1.20;;
13588;SDS011;6865;52.552;13.434;2022-10-19T12:06:02;2.50;;;1.27;;
13588;SDS011;6865;52.552;13.434;2022-10-19T12:11:38;2.27;;;1.10;;
13588;SDS011;6865;52.552;13.434;2022-10-19T12:14:25;5.13;;;1.20;;
13588;SDS011;6865;52.552;13.434;2022-10-19T12:16:58;4.27;;;1.10;;
13588;SDS011;6865;52.552;13.434;2022-10-19T12:19:36;4.90;;;3.20;;
13588;SDS011;6865;52.552;13.434;2022-10-19T12:22:06;3.17;;;1.10;;
13588;SDS011;6865;52.552;13.434;2022-10-19T12:24:40;4.13;;;1.30;;
13588;SDS011;6865;52.552;13.434;2022-10-19T12:27:09;1.87;;;1.20;;
13588;SDS011;6865;52.552;13.434;2022-10-19T12:29:40;4.87;;;1.40;;
13588;SDS011;6865;52.552;13.434;2022-10-19T12:32:11;1.70;;;0.83;;
13588;SDS011;6865;52.552;13.434;2022-10-19T12:34:52;3.23;;;1.10;;
13588;SDS011;6865;52.552;13.434;2022-10-19T12:37:31;4.37;;;1.10;;
13588;SDS011;6865;52.552;13.434;2022-10-19T12:42:52;2.70;;;1.00;;
13588;SDS011;6865;52.552;13.434;2022-10-19T12:53:31;3.67;;;1.10;;
13588;SDS011;6865;52.552;13.434;2022-10-19T12:56:19;5.43;;;2.37;;
13588;SDS011;6865;52.552;13.434;2022-10-19T12:58:57;3.70;;;1.30;;
13588;SDS011;6865;52.552;13.434;2022-10-19T13:04:10;1.47;;;1.00;;
13588;SDS011;6865;52.552;13.434;2022-10-19T13:06:42;6.33;;;1.40;;
13588;SDS011;6865;52.552;13.434;2022-10-19T13:09:39;4.07;;;1.00;;
13588;SDS011;6865;52.552;13.434;2022-10-19T13:12:25;2.23;;;1.00;;
13588;SDS011;6865;52.552;13.434;2022-10-19T13:14:53;3.53;;;1.30;;
13588;SDS011;6865;52.552;13.434;2022-10-19T13:22:40;1.07;;;0.87;;
13588;SDS011;6865;52.552;13.434;2022-10-19T13:25:18;5.93;;;1.27;;
13588;SDS011;6865;52.552;13.434;2022-10-19T13:27:49;2.00;;;1.20;;
13588;SDS011;6865;52.552;13.434;2022-10-19T13:41:17;5.20;;;1.07;;
13588;SDS011;6865;52.552;13.434;2022-10-19T13:46:39;5.03;;;1.40;;
13588;SDS011;6865;52.552;13.434;2022-10-19T13:52:09;2.47;;;1.23;;
13588;SDS011;6865;52.552;13.434;2022-10-19T13:55:20;1.23;;;0.83;;
13588;SDS011;6865;52.552;13.434;2022-10-19T13:58:34;3.37;;;1.10;;
13588;SDS011;6865;52.552;13.434;2022-10-19T14:07:06;3.03;;;1.53;;
13588;SDS011;6865;52.552;13.434;2022-10-19T14:09:46;4.27;;;1.43;;
13588;SDS011;6865;52.552;13.434;2022-10-19T14:12:27;5.57;;;1.30;;
13588;SDS011;6865;52.552;13.434;2022-10-19T14:14:55;2.50;;;1.03;;
13588;SDS011;6865;52.552;13.434;2022-10-19T14:17:23;2.17;;;1.20;;
13588;SDS011;6865;52.552;13.434;2022-10-19T14:19:53;2.83;;;1.10;;
13588;SDS011;6865;52.552;13.434;2022-10-19T14:22:29;3.93;;;1.30;;
13588;SDS011;6865;52.552;13.434;2022-10-19T14:25:06;2.77;;;0.90;;
13588;SDS011;6865;52.552;13.434;2022-10-19T14:27:44;1.23;;;0.93;;
13588;SDS011;6865;52.552;13.434;2022-10-19T14:32:49;2.97;;;1.10;;
13588;SDS011;6865;52.552;13.434;2022-10-19T14:35:23;2.27;;;1.30;;
13588;SDS011;6865;52.552;13.434;2022-10-19T14:37:54;4.70;;;1.00;;
13588;SDS011;6865;52.552;13.434;2022-10-19T14:40:26;3.00;;;1.57;;
13588;SDS011;6865;52.552;13.434;2022-10-19T14:42:55;1.83;;;1.10;;
13588;SDS011;6865;52.552;13.434;2022-10-19T14:45:28;1.93;;;1.13;;
13588;SDS011;6865;52.552;13.434;2022-10-19T14:47:58;2.33;;;1.10;;
13588;SDS011;6865;52.552;13.434;2022-10-19T14:50:27;1.40;;;1.00;;
13588;SDS011;6865;52.552;13.434;2022-10-19T14:58:43;1.93;;;1.10;;
13588;SDS011;6865;52.552;13.434;2022-10-19T15:01:20;2.27;;;1.00;;
13588;SDS011;6865;52.552;13.434;2022-10-19T15:03:47;2.07;;;1.30;;
13588;SDS011;6865;52.552;13.434;2022-10-19T15:06:19;2.80;;;1.17;;
13588;SDS011;6865;52.552;13.434;2022-10-19T15:08:53;3.70;;;1.53;;
13588;SDS011;6865;52.552;13.434;2022-10-19T15:11:24;3.23;;;1.60;;
13588;SDS011;6865;52.552;13.434;2022-10-19T15:14:01;4.33;;;1.50;;
13588;SDS011;6865;52.552;13.434;2022-10-19T15:16:39;5.97;;;2.17;;
13588;SDS011;6865;52.552;13.434;2022-10-19T15:19:16;2.50;;;1.60;;
13588;SDS011;6865;52.552;13.434;2022-10-19T15:24:40;1.80;;;1.10;;
13588;SDS011;6865;52.552;13.434;2022-10-19T15:27:21;1.80;;;1.43;;
13588;SDS011;6865;52.552;13.434;2022-10-19T15:29:59;1.57;;;1.07;;
13588;SDS011;6865;52.552;13.434;2022-10-19T15:32:29;3.03;;;1.20;;
13588;SDS011;6865;52.552;13.434;2022-10-19T15:35:11;2.30;;;1.00;;
13588;SDS011;6865;52.552;13.434;2022-10-19T15:37:43;4.27;;;1.23;;
13588;SDS011;6865;52.552;13.434;2022-10-19T15:40:18;2.80;;;1.20;;
13588;SDS011;6865;52.552;13.434;2022-10-19T15:42:49;3.87;;;1.53;;
13588;SDS011;6865;52.552;13.434;2022-10-19T15:45:29;3.03;;;1.40;;
13588;SDS011;6865;52.552;13.434;2022-10-19T15:50:36;3.97;;;2.60;;
13588;SDS011;6865;52.552;13.434;2022-10-19T15:53:14;3.63;;;2.10;;
13588;SDS011;6865;52.552;13.434;2022-10-19T15:55:41;4.80;;;1.90;;
13588;SDS011;6865;52.552;13.434;2022-10-19T15:58:08;4.30;;;1.90;;
13588;SDS011;6865;52.552;13.434;2022-10-19T16:00:36;2.83;;;1.93;;
13588;SDS011;6865;52.552;13.434;2022-10-19T16:03:03;3.50;;;1.93;;
13588;SDS011;6865;52.552;13.434;2022-10-19T16:05:30;4.00;;;2.20;;
13588;SDS011;6865;52.552;13.434;2022-10-19T16:07:57;3.93;;;3.13;;
13588;SDS011;6865;52.552;13.434;2022-10-19T16:10:24;5.23;;;2.40;;
13588;SDS011;6865;52.552;13.434;2022-10-19T16:12:52;3.70;;;3.10;;
13588;SDS011;6865;52.552;13.434;2022-10-19T16:15:20;5.90;;;3.73;;
13588;SDS011;6865;52.552;13.434;2022-10-19T16:17:54;5.37;;;3.50;;
13588;SDS011;6865;52.552;13.434;2022-10-19T16:20:24;4.40;;;3.30;;
13588;SDS011;6865;52.552;13.434;2022-10-19T16:22:52;4.50;;;3.83;;
13588;SDS011;6865;52.552;13.434;2022-10-19T16:25:18;5.30;;;3.53;;
13588;SDS011;6865;52.552;13.434;2022-10-19T16:27:45;6.33;;;3.17;;
13588;SDS011;6865;52.552;13.434;2022-10-19T16:30:12;7.07;;;3.13;;
13588;SDS011;6865;52.552;13.434;2022-10-19T16:32:39;4.40;;;2.97;;
13588;SDS011;6865;52.552;13.434;2022-10-19T16:35:10;5.93;;;3.17;;
13588;SDS011;6865;52.552;13.434;2022-10-19T16:37:37;5.17;;;3.00;;
13588;SDS011;6865;52.552;13.434;2022-10-19T16:40:03;7.93;;;3.60;;
13588;SDS011;6865;52.552;13.434;2022-10-19T16:42:31;7.00;;;3.30;;
13588;SDS011;6865;52.552;13.434;2022-10-19T16:44:58;6.53;;;4.20;;
13588;SDS011;6865;52.552;13.434;2022-10-19T16:47:25;4.80;;;3.83;;
13588;SDS011;6865;52.552;13.434;2022-10-19T16:49:55;5.90;;;3.70;;
13588;SDS011;6865;52.552;13.434;2022-10-19T16:52:27;4.87;;;3.40;;
13588;SDS011;6865;52.552;13.434;2022-10-19T16:54:53;7.03;;;3.90;;
13588;SDS011;6865;52.552;13.434;2022-10-19T16:57:20;9.23;;;4.37;;
13588;SDS011;6865;52.552;13.434;2022-10-19T16:59:50;8.50;;;3.67;;